createdAt,value
2022-09-02T00:02:31.593Z,3.80
2022-09-02T00:05:03.572Z,3.00
2022-09-02T00:07:35.460Z,3.00
2022-09-02T00:10:08.354Z,2.80
2022-09-02T00:12:40.144Z,3.10
2022-09-02T00:15:12.993Z,3.80
2022-09-02T00:17:44.829Z,3.00
2022-09-02T00:20:16.595Z,2.80
2022-09-02T00:22:48.995Z,3.50
2022-09-02T00:25:20.765Z,3.10
2022-09-02T00:27:52.565Z,3.70
2022-09-02T00:30:24.550Z,2.90
2022-09-02T00:32:56.605Z,2.20
2022-09-02T00:35:28.832Z,3.60
2022-09-02T00:38:01.655Z,3.10
2022-09-02T00:40:34.636Z,3.50
2022-09-02T00:45:40.144Z,3.40
2022-09-02T00:48:11.981Z,3.20
2022-09-02T00:50:44.266Z,3.50
2022-09-02T00:53:17.152Z,3.90
2022-09-02T00:55:51.913Z,5.00
2022-09-02T00:58:27.153Z,4.00
2022-09-02T01:01:00.553Z,3.80
2022-09-02T01:03:34.450Z,4.30
2022-09-02T01:06:07.330Z,4.60
2022-09-02T01:08:40.421Z,4.90
2022-09-02T01:11:18.936Z,3.70
2022-09-02T01:13:50.823Z,4.30
2022-09-02T01:16:27.695Z,3.40
2022-09-02T01:19:04.808Z,4.10
2022-09-02T01:21:36.602Z,4.00
2022-09-02T01:24:10.038Z,4.00
2022-09-02T01:26:41.786Z,3.20
2022-09-02T01:29:13.628Z,3.30
2022-09-02T01:31:46.042Z,3.30
2022-09-02T01:34:18.589Z,3.30
2022-09-02T01:36:51.151Z,3.20
2022-09-02T01:39:23.272Z,3.20
2022-09-02T01:41:55.919Z,3.20
2022-09-02T01:44:29.093Z,2.80
2022-09-02T01:47:00.907Z,3.50
2022-09-02T01:49:35.314Z,3.30
2022-09-02T01:52:08.979Z,3.60
2022-09-02T01:54:41.925Z,3.30
2022-09-02T01:57:14.923Z,3.50
2022-09-02T02:02:20.368Z,3.90
2022-09-02T02:04:52.557Z,3.80
2022-09-02T02:07:25.069Z,3.50
2022-09-02T02:09:56.962Z,3.60
2022-09-02T02:12:30.569Z,3.40
2022-09-02T02:15:05.877Z,3.90
2022-09-02T02:17:38.622Z,3.60
2022-09-02T02:20:16.048Z,3.50
2022-09-02T02:22:48.595Z,3.50
2022-09-02T02:25:21.450Z,3.50
2022-09-02T02:27:55.268Z,3.60
2022-09-02T02:30:28.057Z,3.70
2022-09-02T02:33:00.282Z,3.50
2022-09-02T02:35:32.146Z,3.00
2022-09-02T02:38:04.073Z,3.20
2022-09-02T02:40:38.434Z,3.70
2022-09-02T02:43:10.445Z,3.20
2022-09-02T02:45:42.740Z,3.90
2022-09-02T02:48:14.512Z,2.20
2022-09-02T02:50:47.073Z,3.40
2022-09-02T02:53:19.039Z,3.30
2022-09-02T02:55:51.379Z,3.70
2022-09-02T02:58:23.904Z,3.70
2022-09-02T03:03:26.822Z,3.90
2022-09-02T03:06:00.502Z,3.60
2022-09-02T03:08:35.414Z,3.10
2022-09-02T03:11:08.138Z,4.10
2022-09-02T03:13:41.076Z,3.90
2022-09-02T03:16:13.241Z,2.90
2022-09-02T03:18:45.820Z,3.40
2022-09-02T03:21:18.159Z,3.80
2022-09-02T03:23:50.935Z,3.80
2022-09-02T03:26:25.242Z,3.30
2022-09-02T03:28:58.367Z,3.50
2022-09-02T03:34:01.489Z,3.80
2022-09-02T03:36:35.821Z,3.80
2022-09-02T03:39:09.861Z,3.90
2022-09-02T03:41:42.980Z,3.60
2022-09-02T03:44:15.138Z,3.60
2022-09-02T03:46:47.482Z,3.60
2022-09-02T03:49:19.272Z,3.70
2022-09-02T03:51:51.053Z,3.30
2022-09-02T03:54:23.081Z,3.50
2022-09-02T03:56:55.913Z,2.90
2022-09-02T03:59:28.401Z,3.80
2022-09-02T04:02:03.094Z,3.40
2022-09-02T04:04:35.147Z,3.90
2022-09-02T04:07:07.396Z,4.00
2022-09-02T04:09:42.417Z,3.60
2022-09-02T04:12:17.990Z,3.30
2022-09-02T04:14:50.358Z,3.40
2022-09-02T04:17:26.949Z,4.60
2022-09-02T04:19:58.824Z,3.60
2022-09-02T04:22:30.997Z,3.50
2022-09-02T04:25:04.303Z,3.70
2022-09-02T04:27:37.492Z,3.90
2022-09-02T04:30:16.350Z,3.90
2022-09-02T04:32:48.650Z,4.10
2022-09-02T04:35:20.968Z,4.30
2022-09-02T04:37:53.176Z,4.00
2022-09-02T04:40:25.532Z,3.80
2022-09-02T04:42:58.540Z,4.20
2022-09-02T04:45:30.843Z,4.30
2022-09-02T04:48:03.038Z,4.40
2022-09-02T04:50:37.432Z,4.20
2022-09-02T04:53:09.956Z,4.10
2022-09-02T04:55:44.049Z,5.70
2022-09-02T04:58:17.014Z,4.70
2022-09-02T05:00:49.151Z,3.70
2022-09-02T05:03:21.534Z,3.70
2022-09-02T05:06:03.958Z,4.10
2022-09-02T05:08:37.679Z,4.40
2022-09-02T05:13:40.617Z,3.90
2022-09-02T05:16:16.160Z,4.10
2022-09-02T05:18:51.921Z,4.00
2022-09-02T05:21:25.297Z,4.60
2022-09-02T05:23:57.523Z,4.00
2022-09-02T05:26:30.417Z,4.20
2022-09-02T05:29:02.394Z,4.70
2022-09-02T05:31:34.429Z,3.10
2022-09-02T05:34:06.419Z,4.70
2022-09-02T05:36:39.407Z,5.70
2022-09-02T05:39:11.589Z,4.30
2022-09-02T05:41:43.821Z,5.10
2022-09-02T05:44:16.547Z,4.40
2022-09-02T05:46:49.218Z,4.50
2022-09-02T05:49:22.685Z,4.50
2022-09-02T05:52:15.749Z,4.30
2022-09-02T05:54:50.036Z,6.20
2022-09-02T05:57:25.448Z,4.20
2022-09-02T06:00:08.130Z,4.70
2022-09-02T06:02:46.629Z,4.50
2022-09-02T06:05:24.588Z,6.10
2022-09-02T06:08:03.131Z,3.40
2022-09-02T06:13:08.175Z,3.20
2022-09-02T06:15:44.862Z,3.80
2022-09-02T06:18:19.133Z,3.90
2022-09-02T06:20:54.119Z,3.80
2022-09-02T06:23:26.275Z,4.40
2022-09-02T06:25:58.163Z,4.60
2022-09-02T06:28:30.755Z,4.10
2022-09-02T06:31:09.836Z,3.70
2022-09-02T06:33:42.861Z,5.10
2022-09-02T06:36:17.687Z,4.20
2022-09-02T06:38:52.900Z,4.30
2022-09-02T06:41:28.398Z,5.80
2022-09-02T06:44:03.481Z,3.80
2022-09-02T06:46:43.220Z,4.20
2022-09-02T06:49:18.399Z,3.60
2022-09-02T06:51:55.706Z,3.90
2022-09-02T06:54:31.537Z,3.60
2022-09-02T06:57:14.553Z,3.70
2022-09-02T06:59:46.812Z,3.70
2022-09-02T07:02:19.417Z,3.50
2022-09-02T07:05:09.509Z,3.60
2022-09-02T07:07:43.257Z,3.10
2022-09-02T07:10:17.881Z,2.80
2022-09-02T07:12:53.070Z,2.90
2022-09-02T07:15:25.382Z,3.20
2022-09-02T07:17:58.366Z,3.50
2022-09-02T07:20:36.186Z,3.50
2022-09-02T07:23:08.436Z,3.10
2022-09-02T07:25:42.367Z,3.00
2022-09-02T07:28:15.472Z,2.90
2022-09-02T07:30:47.908Z,3.10
2022-09-02T07:33:22.204Z,3.00
2022-09-02T07:35:54.410Z,2.80
2022-09-02T07:38:26.482Z,4.50
2022-09-02T07:41:00.155Z,3.60
2022-09-02T07:43:37.377Z,2.30
2022-09-02T07:46:10.190Z,1.70
2022-09-02T07:48:44.018Z,2.40
2022-09-02T07:51:17.025Z,2.80
2022-09-02T07:53:51.551Z,1.70
2022-09-02T07:56:24.629Z,1.90
2022-09-02T07:58:56.692Z,1.30
2022-09-02T08:01:30.691Z,2.10
2022-09-02T08:04:05.689Z,1.50
2022-09-02T08:06:38.818Z,1.70
2022-09-02T08:09:12.885Z,1.70
2022-09-02T08:11:48.182Z,1.30
2022-09-02T08:14:25.127Z,1.10
2022-09-02T08:16:59.009Z,0.90
2022-09-02T08:19:31.137Z,1.30
2022-09-02T08:22:07.932Z,1.40
2022-09-02T08:24:40.478Z,1.00
2022-09-02T08:27:13.492Z,1.40
2022-09-02T08:29:45.862Z,1.00
2022-09-02T08:32:18.813Z,1.30
2022-09-02T08:34:51.275Z,0.90
2022-09-02T08:37:23.514Z,1.80
2022-09-02T08:39:55.435Z,2.30
2022-09-02T08:42:32.735Z,2.20
2022-09-02T08:45:13.717Z,1.30
2022-09-02T08:47:50.844Z,1.50
2022-09-02T08:50:24.687Z,2.20
2022-09-02T08:53:02.209Z,1.60
2022-09-02T08:55:42.273Z,1.60
2022-09-02T08:58:18.435Z,1.10
2022-09-02T09:01:09.216Z,1.10
2022-09-02T09:03:51.492Z,0.90
2022-09-02T09:06:31.422Z,0.80
2022-09-02T09:09:14.279Z,1.10
2022-09-02T09:11:54.596Z,1.70
2022-09-02T09:14:33.330Z,1.10
2022-09-02T09:17:14.341Z,1.70
2022-09-02T09:19:54.083Z,1.60
2022-09-02T09:22:32.222Z,1.80
2022-09-02T09:25:08.480Z,1.30
2022-09-02T09:27:41.969Z,1.00
2022-09-02T09:30:15.778Z,2.10
2022-09-02T09:32:54.847Z,1.30
2022-09-02T09:35:28.119Z,1.70
2022-09-02T09:38:00.653Z,0.80
2022-09-02T09:40:36.079Z,0.80
2022-09-02T09:43:19.658Z,0.90
2022-09-02T09:45:54.459Z,0.90
2022-09-02T09:48:31.639Z,1.00
2022-09-02T09:51:20.486Z,1.90
2022-09-02T09:53:52.970Z,1.10
2022-09-02T09:56:30.496Z,1.10
2022-09-02T09:59:02.494Z,0.80
2022-09-02T10:01:36.908Z,1.50
2022-09-02T10:04:39.274Z,1.60
2022-09-02T10:07:07.185Z,0.90
2022-09-02T10:09:39.315Z,0.90
2022-09-02T10:12:13.201Z,1.10
2022-09-02T10:14:48.518Z,0.90
2022-09-02T10:17:33.709Z,0.90
2022-09-02T10:20:11.586Z,0.90
2022-09-02T10:23:01.022Z,0.70
2022-09-02T10:25:41.755Z,0.70
2022-09-02T10:28:26.547Z,0.70
2022-09-02T10:31:11.456Z,0.70
2022-09-02T10:34:01.173Z,0.70
2022-09-02T10:36:39.121Z,1.00
2022-09-02T10:39:24.843Z,1.00
2022-09-02T10:42:01.114Z,0.80
2022-09-02T10:44:39.129Z,0.70
2022-09-02T10:47:18.902Z,1.10
2022-09-02T10:50:04.375Z,1.10
2022-09-02T10:52:56.282Z,1.10
2022-09-02T10:55:41.957Z,0.60
2022-09-02T10:58:21.263Z,1.70
2022-09-02T11:00:57.013Z,0.70
2022-09-02T11:03:34.520Z,0.80
2022-09-02T11:06:14.351Z,0.90
2022-09-02T11:08:52.280Z,0.90
2022-09-02T11:11:31.906Z,0.80
2022-09-02T11:14:18.846Z,0.80
2022-09-02T11:16:57.819Z,1.30
2022-09-02T11:19:39.543Z,0.90
2022-09-02T11:22:26.767Z,0.80
2022-09-02T11:25:04.301Z,0.80
2022-09-02T11:27:42.997Z,1.00
2022-09-02T11:30:21.034Z,0.70
2022-09-02T11:32:58.539Z,1.20
2022-09-02T11:35:37.991Z,0.70
2022-09-02T11:38:28.377Z,0.70
2022-09-02T11:41:34.078Z,1.00
2022-09-02T11:44:29.426Z,0.90
2022-09-02T11:47:20.223Z,1.10
2022-09-02T11:50:19.678Z,1.00
2022-09-02T11:53:04.969Z,0.70
2022-09-02T11:55:41.634Z,1.20
2022-09-02T11:58:34.252Z,2.00
2022-09-02T12:01:25.522Z,0.80
2022-09-02T12:07:33.890Z,0.70
2022-09-02T12:11:08.133Z,1.70
2022-09-02T12:13:43.607Z,3.30
2022-09-02T12:17:03.901Z,0.70
2022-09-02T12:19:46.345Z,0.60
2022-09-02T12:25:03.714Z,0.70
2022-09-02T12:27:39.303Z,0.80
2022-09-02T12:30:15.763Z,0.80
2022-09-02T12:33:14.678Z,1.40
2022-09-02T12:35:59.583Z,0.80
2022-09-02T12:38:40.171Z,1.40
2022-09-02T12:41:28.339Z,1.80
2022-09-02T12:44:23.248Z,1.20
2022-09-02T12:47:01.474Z,1.00
2022-09-02T12:49:46.426Z,0.70
2022-09-02T12:52:42.702Z,0.60
2022-09-02T12:55:20.514Z,1.00
2022-09-02T12:57:55.795Z,0.90
2022-09-02T13:00:37.694Z,0.80
2022-09-02T13:03:37.570Z,2.60
2022-09-02T13:06:22.257Z,0.90
2022-09-02T13:09:24.325Z,0.60
2022-09-02T13:12:24.275Z,1.10
2022-09-02T13:15:12.008Z,0.80
2022-09-02T13:18:12.826Z,1.10
2022-09-02T13:21:06.197Z,1.40
2022-09-02T13:24:14.762Z,1.30
2022-09-02T13:27:23.880Z,0.70
2022-09-02T13:30:12.155Z,1.10
2022-09-02T13:32:44.900Z,0.70
2022-09-02T13:38:01.615Z,0.90
2022-09-02T13:40:35.646Z,0.90
2022-09-02T13:43:20.079Z,1.90
2022-09-02T13:45:53.523Z,1.20
2022-09-02T13:48:27.803Z,0.80
2022-09-02T13:51:07.986Z,1.20
2022-09-02T13:53:59.016Z,1.10
2022-09-02T13:56:34.169Z,1.60
2022-09-02T13:59:06.163Z,1.30
2022-09-02T14:01:40.620Z,1.40
2022-09-02T14:04:15.951Z,0.90
2022-09-02T14:06:51.156Z,1.50
2022-09-02T14:09:27.192Z,1.00
2022-09-02T14:12:00.165Z,1.30
2022-09-02T14:14:32.850Z,2.20
2022-09-02T14:17:26.124Z,1.10
2022-09-02T14:20:18.868Z,0.70
2022-09-02T14:22:58.248Z,1.60
2022-09-02T14:25:35.836Z,1.00
2022-09-02T14:28:23.580Z,1.30
2022-09-02T14:31:01.636Z,2.90
2022-09-02T14:33:44.988Z,1.40
2022-09-02T14:36:36.117Z,1.10
2022-09-02T14:39:16.975Z,0.70
2022-09-02T14:41:51.863Z,0.80
2022-09-02T14:44:34.004Z,1.10
2022-09-02T14:47:14.814Z,0.90
2022-09-02T14:49:51.669Z,0.90
2022-09-02T14:52:27.715Z,1.90
2022-09-02T14:55:00.649Z,1.00
2022-09-02T14:57:33.595Z,1.10
2022-09-02T15:00:10.256Z,0.70
2022-09-02T15:02:44.306Z,0.90
2022-09-02T15:05:16.596Z,0.80
2022-09-02T15:07:48.863Z,0.80
2022-09-02T15:10:21.418Z,1.00
2022-09-02T15:15:25.753Z,0.80
2022-09-02T15:17:58.021Z,0.70
2022-09-02T15:20:29.871Z,1.20
2022-09-02T15:23:01.745Z,1.50
2022-09-02T15:25:34.199Z,0.80
2022-09-02T15:28:06.361Z,1.20
2022-09-02T15:30:38.442Z,1.30
2022-09-02T15:35:49.623Z,0.90
2022-09-02T15:38:21.521Z,0.90
2022-09-02T15:40:53.619Z,1.10
2022-09-02T15:43:25.340Z,1.20
2022-09-02T15:45:57.345Z,1.20
2022-09-02T15:48:29.154Z,1.20
2022-09-02T15:53:37.490Z,0.90
2022-09-02T15:56:18.538Z,1.00
2022-09-02T15:59:00.366Z,0.90
2022-09-02T16:01:34.788Z,1.00
2022-09-02T16:04:08.055Z,1.10
2022-09-02T16:06:41.705Z,1.00
2022-09-02T16:09:15.920Z,0.90
2022-09-02T16:11:49.681Z,1.40
2022-09-02T16:14:22.195Z,1.10
2022-09-02T16:16:55.796Z,0.80
2022-09-02T16:19:30.192Z,2.30
2022-09-02T16:22:02.683Z,1.00
2022-09-02T16:24:34.491Z,0.90
2022-09-02T16:27:06.533Z,1.20
2022-09-02T16:29:39.572Z,1.40
2022-09-02T16:32:26.572Z,0.90
2022-09-02T16:34:59.782Z,1.00
2022-09-02T16:37:31.652Z,1.40
2022-09-02T16:40:04.455Z,1.20
2022-09-02T16:42:38.391Z,1.00
2022-09-02T16:45:12.004Z,1.20
2022-09-02T16:47:44.778Z,1.30
2022-09-02T16:50:17.140Z,0.90
2022-09-02T16:52:49.127Z,1.10
2022-09-02T16:55:20.978Z,1.20
2022-09-02T16:57:52.664Z,1.20
2022-09-02T17:00:24.724Z,1.30
2022-09-02T17:02:56.462Z,1.40
2022-09-02T17:05:28.271Z,1.40
2022-09-02T17:08:01.674Z,1.80
2022-09-02T17:10:34.992Z,1.70
2022-09-02T17:13:06.725Z,1.40
2022-09-02T17:15:38.437Z,1.80
2022-09-02T17:18:10.499Z,1.10
2022-09-02T17:20:42.199Z,1.40
2022-09-02T17:23:14.850Z,1.10
2022-09-02T17:25:49.217Z,1.30
2022-09-02T17:28:21.505Z,1.90
2022-09-02T17:30:53.259Z,2.50
2022-09-02T17:33:25.158Z,1.70
2022-09-02T17:36:00.737Z,1.40
2022-09-02T17:38:32.545Z,1.30
2022-09-02T17:41:21.930Z,1.50
2022-09-02T17:43:53.645Z,1.60
2022-09-02T17:46:25.422Z,2.00
2022-09-02T17:49:15.830Z,2.30
2022-09-02T17:51:49.005Z,1.80
2022-09-02T17:54:20.873Z,1.60
2022-09-02T17:57:04.986Z,2.00
2022-09-02T17:59:58.011Z,1.80
2022-09-02T18:03:22.156Z,1.90
2022-09-02T18:06:03.651Z,1.80
2022-09-02T18:08:41.045Z,2.30
2022-09-02T18:11:12.795Z,2.40
2022-09-02T18:13:56.322Z,2.20
2022-09-02T18:16:37.132Z,2.40
2022-09-02T18:19:25.301Z,1.60
2022-09-02T18:22:06.338Z,2.00
2022-09-02T18:24:50.379Z,2.60
2022-09-02T18:27:33.439Z,2.10
2022-09-02T18:33:10.253Z,2.50
2022-09-02T18:38:28.217Z,2.00
2022-09-02T18:41:14.392Z,2.00
2022-09-02T18:44:01.067Z,2.00
2022-09-02T18:46:39.238Z,2.40
2022-09-02T18:49:16.652Z,2.30
2022-09-02T18:51:50.582Z,2.10
2022-09-02T18:54:30.824Z,1.80
2022-09-02T18:57:07.564Z,2.10
2022-09-02T18:59:45.257Z,2.20
2022-09-02T19:02:25.028Z,2.20
2022-09-02T19:04:59.925Z,2.20
2022-09-02T19:07:52.025Z,1.90
2022-09-02T19:10:24.961Z,2.80
2022-09-02T19:12:58.573Z,2.30
2022-09-02T19:15:31.025Z,2.40
2022-09-02T19:18:03.070Z,2.30
2022-09-02T19:20:36.748Z,2.50
2022-09-02T19:23:13.010Z,2.10
2022-09-02T19:25:46.935Z,2.80
2022-09-02T19:28:20.560Z,1.90
2022-09-02T19:30:54.356Z,2.30
2022-09-02T19:33:27.053Z,2.60
2022-09-02T19:35:59.198Z,1.80
2022-09-02T19:38:31.171Z,2.10
2022-09-02T19:41:03.149Z,2.90
2022-09-02T19:43:35.883Z,3.40
2022-09-02T19:48:39.804Z,3.20
2022-09-02T19:51:16.960Z,3.50
2022-09-02T19:53:49.293Z,2.90
2022-09-02T19:58:52.797Z,3.00
2022-09-02T20:01:24.624Z,3.20
2022-09-02T20:03:56.434Z,3.20
2022-09-02T20:06:28.389Z,2.90
2022-09-02T20:09:00.096Z,3.00
2022-09-02T20:11:32.872Z,2.90
2022-09-02T20:14:05.225Z,2.80
2022-09-02T20:16:37.031Z,3.60
2022-09-02T20:19:09.272Z,2.40
2022-09-02T20:21:45.206Z,2.80
2022-09-02T20:24:23.336Z,2.60
2022-09-02T20:27:08.597Z,3.60
2022-09-02T20:30:02.741Z,2.30
2022-09-02T20:32:45.540Z,2.90
2022-09-02T20:35:40.057Z,2.90
2022-09-02T20:38:30.256Z,3.10
2022-09-02T20:41:09.869Z,2.40
2022-09-02T20:44:02.439Z,2.50
2022-09-02T20:46:52.488Z,2.30
2022-09-02T20:49:45.261Z,3.00
2022-09-02T20:52:22.938Z,3.60
2022-09-02T20:55:03.040Z,2.30
2022-09-02T20:57:44.558Z,2.80
2022-09-02T21:00:20.508Z,2.90
2022-09-02T21:02:56.801Z,3.40
2022-09-02T21:05:33.892Z,3.60
2022-09-02T21:08:12.813Z,2.70
2022-09-02T21:10:52.002Z,2.70
2022-09-02T21:13:34.924Z,2.40
2022-09-02T21:16:19.711Z,2.80
2022-09-02T21:19:04.856Z,2.80
2022-09-02T21:21:44.235Z,2.80
2022-09-02T21:24:24.105Z,2.90
2022-09-02T21:27:02.032Z,3.00
2022-09-02T21:29:40.843Z,3.00
2022-09-02T21:32:20.544Z,3.00
2022-09-02T21:34:59.141Z,2.80
2022-09-02T21:37:33.460Z,3.00
2022-09-02T21:40:11.585Z,3.20
2022-09-02T21:43:00.282Z,2.80
2022-09-02T21:45:49.668Z,3.20
2022-09-02T21:48:33.936Z,2.90
2022-09-02T21:51:16.565Z,3.20
2022-09-02T21:54:01.991Z,3.10
2022-09-02T21:56:49.493Z,2.90
2022-09-02T21:59:40.059Z,3.40
2022-09-02T22:02:20.107Z,3.40
2022-09-02T22:05:01.678Z,3.90
2022-09-02T22:07:40.255Z,4.10
2022-09-02T22:10:20.875Z,5.30
2022-09-02T22:12:56.994Z,4.20
2022-09-02T22:15:37.605Z,4.30
2022-09-02T22:18:17.774Z,6.10
2022-09-02T22:20:53.950Z,5.00
2022-09-02T22:23:29.340Z,5.20
2022-09-02T22:26:08.395Z,5.20
2022-09-02T22:28:45.541Z,4.00
2022-09-02T22:31:26.000Z,4.10
2022-09-02T22:34:03.150Z,3.80
2022-09-02T22:36:55.241Z,4.20
2022-09-02T22:39:35.032Z,4.60
2022-09-02T22:42:17.766Z,4.00
2022-09-02T22:45:11.127Z,4.60
2022-09-02T22:48:05.735Z,4.50
2022-09-02T22:50:59.341Z,4.10
2022-09-02T22:53:32.393Z,4.60
2022-09-02T22:56:08.047Z,4.60
2022-09-02T22:59:03.762Z,5.20
2022-09-02T23:01:51.483Z,5.40
2022-09-02T23:04:36.433Z,4.80
2022-09-02T23:07:09.585Z,4.80
2022-09-02T23:09:41.782Z,4.90
2022-09-02T23:12:28.709Z,4.60
2022-09-02T23:15:15.184Z,4.10
2022-09-02T23:17:57.355Z,4.50
2022-09-02T23:20:39.582Z,4.50
2022-09-02T23:23:25.004Z,5.10
2022-09-02T23:26:12.402Z,4.60
2022-09-02T23:28:58.887Z,4.60
2022-09-02T23:31:42.414Z,4.40
2022-09-02T23:34:30.945Z,5.80
2022-09-02T23:37:12.268Z,4.50
2022-09-02T23:40:04.225Z,4.60
2022-09-02T23:42:35.985Z,4.30
2022-09-02T23:45:19.464Z,5.00
2022-09-02T23:48:04.777Z,4.50
2022-09-02T23:50:45.861Z,4.40
2022-09-02T23:53:24.024Z,5.00
2022-09-02T23:56:07.545Z,4.90
2022-09-02T23:58:51.840Z,5.10
